Baldwin, Texas
Current Conditions -  °F | °C
As of 1:35 AM on Thursday 23 Oct 2014 (Local Time) from KASL Reporting Station
Clear Clear  
Wind Chill: 61°   Ceiling: Unl
Heat Index: 61°   Visibility: 10mi
Dew Point: 55°   Wind: 3mph
Humidity: 80%   Direction: 70°ENE
Pressure: 30.15"   Gusts: NA
Location:  32.6187°N, 94.1782°W
Report Text: KASL 230635Z AUTO 07003KT 10SM CLR 16/13 A3015 RMK AO1 T01600125
Loading
Personal Weather Stations






























Interactive Weather Map
Tropical Storm Tracking
New forecast layout! Learn more

10-Day Weather Forecast

Advertisements
Track Severe Weather on mobile